Time;durP1;ratioP1;P1;durP2;ratioP2;P2;SDS_P1;SDS_P2;PMS_P1;PMS_P2;Temp;Humidity;BMP_temperature;BMP_pressure;BME280_temperature;BME280_humidity;BME280_pressure;Samples;Min_cycle;Max_cycle;Signal;HPM_P1;HPM_P2
2024/04/05 00:01:50;;;;;;;5.20;1.60;;;13.40;84.70;;;15.02;60.34;97545.72;5029813;28;20528;-41
2024/04/05 00:04:17;;;;;;;4.93;1.95;;;13.40;84.60;;;15.01;60.59;97551.28;5029368;28;20048;-41
2024/04/05 00:06:44;;;;;;;2.25;1.45;;;13.40;84.60;;;14.98;60.60;97543.63;5029947;28;20045;-40
2024/04/05 00:09:10;;;;;;;3.38;1.85;;;13.40;84.70;;;14.98;60.52;97551.66;5029942;28;20052;-40
2024/04/05 00:11:38;;;;;;;2.92;1.52;;;13.40;84.50;;;14.98;60.70;97547.13;5029554;28;20104;-41
2024/04/05 00:14:05;;;;;;;2.22;1.40;;;13.40;85.00;;;15.01;60.53;97551.28;5028811;28;20524;-40
2024/04/05 00:16:31;;;;;;;2.92;1.35;;;13.30;85.20;;;15.01;60.53;97545.94;5013622;28;20046;-41
2024/04/05 00:18:58;;;;;;;3.53;1.48;;;13.30;85.50;;;15.03;60.61;97551.94;5026796;28;20050;-41
2024/04/05 00:21:25;;;;;;;3.58;1.80;;;13.30;85.40;;;15.01;60.43;97549.44;5029678;28;20041;-41
2024/04/05 00:23:51;;;;;;;3.63;1.77;;;13.40;85.20;;;15.00;60.77;97552.31;5029018;28;20045;-41
2024/04/05 00:26:18;;;;;;;4.20;1.70;;;13.30;85.50;;;14.98;60.60;97551.66;5029573;28;20046;-49
2024/04/05 00:28:45;;;;;;;2.30;1.35;;;13.40;85.30;;;14.93;60.75;97547.72;5030461;28;20045;-41
2024/04/05 00:31:11;;;;;;;4.40;1.48;;;13.40;85.30;;;14.91;61.11;97552.44;5030016;28;20071;-41
2024/04/05 00:33:38;;;;;;;4.13;1.58;;;13.40;85.40;;;14.88;61.08;97534.03;5029523;28;20072;-41
2024/04/05 00:36:05;;;;;;;3.20;1.42;;;13.40;85.40;;;14.87;61.30;97534.22;5029672;28;20049;-42
2024/04/05 00:38:32;;;;;;;3.35;1.60;;;13.40;85.80;;;14.89;61.43;97537.56;5029274;28;20049;-40
2024/04/05 00:40:59;;;;;;;4.07;1.67;;;13.40;85.90;;;14.90;61.25;97539.22;5029879;28;20052;-41
2024/04/05 00:43:26;;;;;;;5.40;2.00;;;13.40;86.20;;;14.91;61.60;97538.22;5013128;28;20257;-41
2024/04/05 00:45:55;;;;;;;2.70;1.40;;;13.30;86.40;;;14.94;61.47;97535.13;5029908;28;20496;-40
2024/04/05 00:48:23;;;;;;;5.38;1.70;;;13.30;86.50;;;14.94;61.49;97532.44;5029457;28;20053;-40
2024/04/05 00:50:52;;;;;;;3.10;1.65;;;13.30;86.50;;;14.94;61.31;97524.41;5012798;28;20072;-40
2024/04/05 00:53:24;;;;;;;6.95;2.05;;;13.40;86.30;;;14.94;61.29;97522.56;5013152;28;20481;-41
2024/04/05 00:55:53;;;;;;;3.72;1.50;;;13.40;86.30;;;14.95;61.33;97518.88;5029751;28;20449;-41
2024/04/05 00:58:21;;;;;;;6.68;1.73;;;13.30;86.40;;;14.94;61.19;97511.81;5012941;28;20037;-46
2024/04/05 01:00:48;;;;;;;3.05;1.58;;;13.30;86.90;;;14.95;61.36;97515.34;5029138;28;20048;-40
2024/04/05 01:03:15;;;;;;;3.63;1.48;;;13.30;86.00;;;14.95;61.15;97524.22;5029163;28;20048;-40
2024/04/05 01:05:42;;;;;;;3.47;1.80;;;13.30;86.40;;;14.96;61.16;97522.38;5029973;28;20420;-41
2024/04/05 01:08:10;;;;;;;3.53;1.60;;;13.30;86.40;;;14.95;61.15;97512.69;5028909;28;20057;-41
2024/04/05 01:10:39;;;;;;;2.90;1.42;;;13.30;86.30;;;14.95;61.22;97512.69;5029883;28;20045;-41
2024/04/05 01:13:08;;;;;;;3.15;1.70;;;13.20;86.20;;;14.93;61.09;97507.50;5029006;28;20429;-40
2024/04/05 01:15:35;;;;;;;3.88;1.90;;;13.20;86.20;;;14.93;61.13;97518.22;5029827;28;20050;-40
2024/04/05 01:18:05;;;;;;;3.88;1.42;;;13.20;86.60;;;14.94;61.03;97513.69;5029632;28;20040;-40
2024/04/05 01:20:33;;;;;;;2.83;1.63;;;13.20;86.40;;;14.92;61.08;97518.41;5029371;28;20037;-40
2024/04/05 01:23:02;;;;;;;3.15;1.75;;;13.20;87.10;;;14.89;61.33;97519.63;5028373;28;20037;-40
2024/04/05 01:25:30;;;;;;;3.17;1.75;;;13.20;86.40;;;14.88;61.14;97517.13;5033109;28;20046;-40
2024/04/05 01:27:59;;;;;;;5.18;2.00;;;13.20;86.40;;;14.87;61.17;97519.00;5033034;28;20053;-40
2024/04/05 01:30:26;;;;;;;4.28;1.70;;;13.20;86.20;;;14.86;61.11;97509.28;5016953;28;20037;-40
2024/04/05 01:32:57;;;;;;;1.88;1.35;;;13.20;86.20;;;14.86;61.14;97514.66;5032521;28;20053;-41
2024/04/05 01:35:24;;;;;;;4.07;1.52;;;13.20;85.90;;;14.87;61.05;97510.97;5025488;28;20044;-40
2024/04/05 01:37:51;;;;;;;3.60;1.70;;;13.20;85.80;;;14.87;61.23;97516.31;5033079;28;20045;-40
2024/04/05 01:40:18;;;;;;;3.72;1.67;;;13.20;86.90;;;14.86;61.06;97513.81;5033059;28;20519;-41
2024/04/05 01:42:44;;;;;;;1.83;1.20;;;13.20;86.20;;;14.84;61.18;97508.66;5032327;28;20045;-41
2024/04/05 01:45:11;;;;;;;4.60;1.75;;;13.20;85.80;;;14.84;61.21;97515.88;5016631;28;20037;-41
2024/04/05 01:47:38;;;;;;;5.22;1.75;;;13.20;85.50;;;14.82;61.18;97513.38;5016631;28;20045;-41
2024/04/05 01:50:05;;;;;;;4.53;1.60;;;13.20;85.30;;;14.84;61.04;97515.88;5016292;28;20049;-41
2024/04/05 01:52:32;;;;;;;4.00;1.67;;;13.20;85.30;;;14.85;61.11;97510.31;5015813;28;20068;-41
2024/04/05 01:54:59;;;;;;;3.22;2.00;;;13.20;85.30;;;14.84;61.13;97507.81;5016240;28;20080;-41
2024/04/05 01:57:27;;;;;;;2.80;2.20;;;13.30;85.10;;;14.83;61.08;97500.78;5032678;28;20125;-41
2024/04/05 01:59:55;;;;;;;5.97;1.58;;;13.30;85.00;;;14.81;61.10;97501.00;5032750;28;20033;-41
2024/04/05 02:02:22;;;;;;;4.60;1.80;;;13.30;84.90;;;14.79;61.26;97502.19;5024214;28;20044;-41
2024/04/05 02:04:53;;;;;;;3.72;1.73;;;13.30;84.60;;;14.81;61.19;97497.47;5015326;28;20525;-41
2024/04/05 02:07:23;;;;;;;4.85;1.52;;;13.30;84.60;;;14.82;61.25;97499.97;5015833;28;20037;-42
2024/04/05 02:09:51;;;;;;;3.20;1.65;;;13.30;84.50;;;14.82;61.23;97504.50;5032401;28;20519;-41
2024/04/05 02:12:20;;;;;;;2.97;1.88;;;13.30;84.60;;;14.80;61.16;97499.34;5015491;28;20056;-42
2024/04/05 02:14:46;;;;;;;3.33;1.50;;;13.30;84.50;;;14.80;61.24;97495.84;5031855;28;20041;-41
2024/04/05 02:17:13;;;;;;;2.78;1.60;;;13.30;84.40;;;14.80;61.11;97493.16;5031298;28;20057;-41
2024/04/05 02:19:40;;;;;;;4.13;1.83;;;13.30;84.20;;;14.82;61.12;97501.84;5031390;28;20053;-42
2024/04/05 02:22:06;;;;;;;2.35;1.55;;;13.30;84.30;;;14.83;61.04;97498.97;5030220;28;20045;-41
2024/04/05 02:24:33;;;;;;;2.92;1.55;;;13.40;84.20;;;14.84;60.97;97497.94;5031504;28;20497;-41
2024/04/05 02:27:01;;;;;;;2.95;2.42;;;13.40;84.30;;;14.83;61.03;97500.78;5031235;28;20040;-40
2024/04/05 02:29:28;;;;;;;3.03;1.50;;;13.30;84.20;;;14.83;61.13;97501.66;5031030;28;20098;-40
2024/04/05 02:31:55;;;;;;;3.47;1.48;;;13.30;84.30;;;14.80;60.97;97499.34;5031228;28;20420;-41
2024/04/05 02:34:21;;;;;;;3.00;1.83;;;13.30;84.20;;;14.80;61.14;97506.56;5030667;28;20049;-42
2024/04/05 02:36:52;;;;;;;3.55;1.58;;;13.30;84.00;;;14.79;61.16;97504.88;5030215;28;20052;-41
2024/04/05 02:39:19;;;;;;;2.90;1.70;;;13.30;84.10;;;14.80;61.08;97501.19;5030939;28;20045;-41
2024/04/05 02:41:46;;;;;;;2.67;1.95;;;13.30;83.80;;;14.79;60.91;97503.03;5014606;28;20104;-41
2024/04/05 02:44:13;;;;;;;3.50;1.80;;;13.30;84.00;;;14.77;61.06;97500.56;5030486;28;20037;-41
2024/04/05 02:46:41;;;;;;;3.45;2.00;;;13.30;83.80;;;14.79;60.83;97511.06;5031021;28;20045;-41
2024/04/05 02:49:08;;;;;;;3.65;1.73;;;13.30;83.80;;;14.77;61.06;97503.25;5014333;28;20060;-41
2024/04/05 02:51:36;;;;;;;2.83;1.60;;;13.30;83.70;;;14.77;61.33;97499.72;5030919;28;20440;-41
2024/04/05 02:54:03;;;;;;;2.00;1.58;;;13.30;83.70;;;14.77;61.01;97505.06;5030329;28;20041;-41
2024/04/05 02:56:30;;;;;;;4.20;1.88;;;13.20;83.60;;;14.79;60.91;97507.56;5030643;28;20345;-41
2024/04/05 02:58:57;;;;;;;4.07;1.77;;;13.20;83.80;;;14.79;61.02;97504.88;5030447;28;20085;-41
2024/04/05 03:01:24;;;;;;;3.53;1.52;;;13.20;83.60;;;14.76;60.91;97504.25;5030617;28;20034;-41
2024/04/05 03:03:51;;;;;;;4.28;1.90;;;13.20;83.50;;;14.76;60.87;97514.16;5028657;28;20112;-41
2024/04/05 03:06:20;;;;;;;6.07;1.67;;;13.30;83.80;;;14.74;60.83;97519.69;5030576;28;20037;-41
2024/04/05 03:08:46;;;;;;;2.40;1.77;;;13.30;83.60;;;14.72;60.76;97524.41;5030503;28;20060;-41
2024/04/05 03:11:13;;;;;;;3.30;2.60;;;13.30;83.50;;;14.70;60.75;97521.09;5030340;28;20049;-41
2024/04/05 03:13:40;;;;;;;2.80;1.63;;;13.20;83.40;;;14.68;60.93;97522.31;5030009;28;20409;-41
2024/04/05 03:16:07;;;;;;;2.35;1.27;;;13.20;83.30;;;14.69;60.86;97529.31;5029298;28;20428;-41
2024/04/05 03:18:34;;;;;;;3.70;1.42;;;13.20;83.50;;;14.68;61.07;97527.66;5028845;28;20060;-41
2024/04/05 03:21:01;;;;;;;3.85;1.55;;;13.20;83.60;;;14.67;60.80;97524.13;5028444;28;20108;-40
2024/04/05 03:23:27;;;;;;;4.32;1.80;;;13.20;83.30;;;14.69;60.87;97515.91;5029747;28;20092;-42
2024/04/05 03:25:55;;;;;;;2.30;1.42;;;13.20;83.30;;;14.70;60.86;97518.41;5029947;28;20072;-41
2024/04/05 03:28:21;;;;;;;5.13;2.60;;;13.20;83.20;;;14.68;60.72;97515.09;5013855;28;20505;-41
2024/04/05 03:30:48;;;;;;;4.45;1.70;;;13.20;83.10;;;14.70;60.79;97514.91;5029754;28;20053;-41
2024/04/05 03:33:15;;;;;;;2.25;1.52;;;13.20;82.90;;;14.72;60.68;97515.53;5029440;28;20061;-41
2024/04/05 03:35:42;;;;;;;2.97;1.40;;;13.30;82.90;;;14.73;60.71;97512.69;5030091;28;20045;-40
2024/04/05 03:38:08;;;;;;;7.53;1.88;;;13.20;82.60;;;14.75;60.57;97509.78;5029979;28;20052;-40
2024/04/05 03:40:39;;;;;;;4.47;2.03;;;13.20;82.60;;;14.75;60.41;97504.44;5029833;28;20037;-41
2024/04/05 03:43:07;;;;;;;3.13;1.70;;;13.30;82.50;;;14.74;60.41;97495.56;5029358;28;20041;-41
2024/04/05 03:45:34;;;;;;;4.38;1.65;;;13.20;82.30;;;14.75;60.34;97496.38;5029859;28;20048;-41
2024/04/05 03:48:01;;;;;;;2.90;2.08;;;13.20;82.10;;;14.76;60.27;97495.38;5029728;28;20052;-41
2024/04/05 03:50:28;;;;;;;4.50;2.35;;;13.20;82.10;;;14.76;60.40;97490.03;5029168;28;20045;-40
2024/04/05 03:52:55;;;;;;;7.00;1.88;;;13.20;82.00;;;14.78;60.20;97485.31;5029368;28;20045;-40
2024/04/05 03:55:22;;;;;;;1.77;1.13;;;13.30;82.00;;;14.79;60.21;97489.63;5029517;28;20432;-40
2024/04/05 03:57:52;;;;;;;2.63;1.50;;;13.30;81.80;;;14.82;60.00;97493.78;5029563;28;20139;-40
2024/04/05 04:00:21;;;;;;;5.05;2.50;;;13.30;81.70;;;14.84;60.13;97497.94;5029427;28;20417;-40
2024/04/05 04:02:52;;;;;;;6.80;2.78;;;13.40;81.60;;;14.88;60.08;97496.53;5028969;28;20034;-40
2024/04/05 04:05:19;;;;;;;3.17;1.88;;;13.40;81.70;;;14.89;59.95;97508.91;5029325;28;20501;-40
2024/04/05 04:07:46;;;;;;;3.35;1.50;;;13.30;81.70;;;14.90;59.89;97509.75;5029529;28;20049;-41
2024/04/05 04:10:14;;;;;;;4.45;2.42;;;13.30;81.80;;;14.89;59.92;97511.59;5029308;28;20041;-40
2024/04/05 04:12:40;;;;;;;3.58;1.98;;;13.30;81.90;;;14.87;59.84;97510.09;5029130;28;20040;-40
2024/04/05 04:15:11;;;;;;;3.00;1.55;;;13.30;81.70;;;14.86;60.04;97516.50;5029496;28;20045;-40
2024/04/05 04:17:38;;;;;;;3.22;2.08;;;13.30;81.60;;;14.86;59.93;97516.50;5021834;28;20053;-41
2024/04/05 04:20:08;;;;;;;3.38;1.73;;;13.30;81.90;;;14.85;59.95;97504.97;5029031;28;20049;-41
2024/04/05 04:22:35;;;;;;;2.72;1.67;;;13.30;82.10;;;14.85;59.82;97512.16;5028283;28;20040;-40
2024/04/05 04:25:03;;;;;;;4.90;1.65;;;13.30;82.20;;;14.83;59.79;97503.47;5029348;28;20040;-40
2024/04/05 04:27:31;;;;;;;2.92;1.77;;;13.20;81.90;;;14.82;59.89;97504.50;5013089;28;20037;-41
2024/04/05 04:30:00;;;;;;;5.43;1.65;;;13.20;82.00;;;14.80;59.96;97509.25;5029317;28;20060;-40
2024/04/05 04:32:29;;;;;;;3.70;1.95;;;13.20;81.80;;;14.75;59.77;97507.97;5028570;28;20049;-40
2024/04/05 04:34:56;;;;;;;4.05;2.00;;;13.20;81.60;;;14.74;60.04;97505.47;5029139;28;20045;-40
2024/04/05 04:37:23;;;;;;;4.93;2.08;;;13.20;81.40;;;14.73;59.89;97501.97;5029110;28;20048;-40
2024/04/05 04:39:50;;;;;;;3.40;2.00;;;13.20;81.50;;;14.73;59.81;97501.97;5029123;28;20346;-41
2024/04/05 04:42:17;;;;;;;3.25;1.67;;;13.20;81.60;;;14.71;59.88;97503.16;5028339;28;20034;-41
2024/04/05 04:44:43;;;;;;;3.92;2.15;;;13.20;81.70;;;14.71;59.84;97497.81;5029214;28;20033;-41
2024/04/05 04:47:10;;;;;;;3.38;1.85;;;13.20;81.70;;;14.69;59.55;97497.16;5029170;28;20046;-41
2024/04/05 04:49:37;;;;;;;4.53;1.58;;;13.20;81.80;;;14.68;59.77;97500.88;5021052;28;20046;-41
2024/04/05 04:52:04;;;;;;;4.55;1.73;;;13.20;81.40;;;14.68;59.79;97509.75;5028651;28;20416;-41
2024/04/05 04:54:31;;;;;;;9.05;3.50;;;13.20;81.40;;;14.65;59.80;97512.78;5028596;28;20057;-41
2024/04/05 04:56:58;;;;;;;5.35;1.83;;;13.20;81.30;;;14.65;59.83;97512.78;5028999;28;20041;-41
2024/04/05 04:59:28;;;;;;;6.68;1.52;;;13.10;81.50;;;14.65;59.76;97520.00;5031190;28;20192;-41
2024/04/05 05:01:56;;;;;;;2.63;1.75;;;13.20;81.30;;;14.65;59.88;97514.63;5016573;28;20063;-41
2024/04/05 05:04:23;;;;;;;3.15;1.95;;;13.10;81.30;;;14.62;59.76;97513.19;5015983;28;20038;-41
2024/04/05 05:06:50;;;;;;;5.15;1.90;;;13.10;81.30;;;14.62;59.58;97510.50;5032837;28;20033;-41
2024/04/05 05:09:18;;;;;;;3.03;1.88;;;13.10;81.20;;;14.60;59.92;97509.00;5032462;28;20042;-41
2024/04/05 05:11:46;;;;;;;2.13;1.45;;;13.10;81.30;;;14.59;59.79;97518.91;5000154;28;20052;-40
2024/04/05 05:14:15;;;;;;;3.08;1.67;;;13.00;81.50;;;14.57;59.73;97519.09;5031767;28;20041;-41
2024/04/05 05:16:41;;;;;;;2.65;1.77;;;13.10;81.40;;;14.56;59.81;97528.16;5032505;28;20420;-41
2024/04/05 05:19:09;;;;;;;4.57;1.77;;;13.00;81.20;;;14.54;59.79;97526.66;5032373;28;20033;-43
2024/04/05 05:21:37;;;;;;;4.72;1.95;;;13.00;81.50;;;14.56;59.74;97524.63;5031581;28;20052;-41
2024/04/05 05:24:05;;;;;;;3.22;2.33;;;13.00;81.70;;;14.55;59.79;97522.97;5031881;28;20041;-43
2024/04/05 05:26:32;;;;;;;5.47;2.72;;;13.00;81.80;;;14.55;59.59;97509.56;5032357;28;20046;-41
2024/04/05 05:28:59;;;;;;;3.33;1.80;;;12.90;81.80;;;14.53;59.50;97512.41;5016039;28;20029;-41
2024/04/05 05:31:26;;;;;;;4.00;1.80;;;12.90;81.80;;;14.52;59.66;97510.78;5032260;28;20501;-40
2024/04/05 05:33:53;;;;;;;2.88;1.60;;;12.90;81.90;;;14.49;59.65;97507.66;5031738;28;20487;-41
2024/04/05 05:36:20;;;;;;;3.10;1.70;;;12.90;81.80;;;14.48;59.70;97511.31;5031789;28;20041;-41
2024/04/05 05:38:46;;;;;;;2.95;1.92;;;12.90;81.80;;;14.45;59.78;97503.69;5015241;28;20046;-41
2024/04/05 05:41:13;;;;;;;5.65;1.70;;;12.90;81.80;;;14.42;59.72;97506.72;5032132;28;20063;-41
2024/04/05 05:43:39;;;;;;;1.73;1.40;;;12.90;81.60;;;14.40;59.93;97508.78;5031232;28;20048;-42
2024/04/05 05:46:06;;;;;;;5.88;2.10;;;12.90;81.60;;;14.38;59.88;97504.44;5031982;28;20041;-41
2024/04/05 05:48:33;;;;;;;2.67;1.67;;;12.90;81.70;;;14.37;59.93;97499.28;5031972;28;20045;-41
2024/04/05 05:51:00;;;;;;;3.85;2.00;;;12.90;81.70;;;14.37;59.92;97501.97;5031923;28;20052;-41
2024/04/05 05:53:27;;;;;;;4.35;1.92;;;12.90;81.70;;;14.35;60.04;97504.00;5031437;28;20052;-41
2024/04/05 05:55:54;;;;;;;5.05;1.90;;;12.90;81.60;;;14.34;59.98;97502.31;5031999;28;20060;-42
2024/04/05 05:58:21;;;;;;;2.75;1.50;;;12.90;81.40;;;14.35;59.94;97504.00;5031764;28;20049;-41
2024/04/05 06:00:48;;;;;;;2.70;1.90;;;13.00;81.40;;;14.35;60.17;97499.47;5031671;28;20041;-41
2024/04/05 06:03:15;;;;;;;5.50;2.03;;;13.00;81.10;;;14.37;60.12;97508.13;5031300;28;20413;-42
2024/04/05 06:05:49;;;;;;;7.25;2.03;;;13.00;81.50;;;14.40;60.21;97506.91;5006646;28;20052;-42
2024/04/05 06:08:16;;;;;;;4.72;2.13;;;13.00;81.50;;;14.42;60.11;97507.56;5031744;28;20405;-46
2024/04/05 06:10:53;;;;;;;2.05;1.60;;;13.00;81.30;;;14.45;60.07;97512.53;5030084;28;20048;-41
2024/04/05 06:13:19;;;;;;;5.05;1.90;;;13.00;81.40;;;14.50;60.09;97514.66;5015759;28;20057;-41
2024/04/05 06:15:55;;;;;;;5.82;2.17;;;13.00;81.50;;;14.51;60.08;97511.78;5031717;28;20052;-42
2024/04/05 06:18:26;;;;;;;4.22;1.95;;;13.10;81.60;;;14.54;59.99;97508.75;5031366;28;20056;-41
2024/04/05 06:20:58;;;;;;;4.53;2.15;;;13.10;81.70;;;14.57;60.02;97511.06;5028688;28;20033;-40
2024/04/05 06:23:25;;;;;;;4.72;2.10;;;13.10;81.80;;;14.59;60.03;97510.88;5030852;28;20045;-41
2024/04/05 06:25:56;;;;;;;3.40;2.03;;;13.10;81.60;;;14.62;60.13;97517.69;5030906;28;20429;-41
2024/04/05 06:28:23;;;;;;;3.67;1.88;;;13.20;81.70;;;14.63;60.12;97519.34;5031296;28;20042;-41
2024/04/05 06:30:50;;;;;;;5.40;2.20;;;13.10;81.70;;;14.67;60.25;97515.28;5031511;28;20046;-41
2024/04/05 06:33:17;;;;;;;2.85;2.00;;;13.20;81.60;;;14.72;60.30;97512.88;5030752;28;20044;-40
2024/04/05 06:35:44;;;;;;;4.05;2.05;;;13.30;81.80;;;14.78;60.22;97504.06;5030850;28;20037;-40
2024/04/05 06:38:11;;;;;;;3.83;1.75;;;13.40;81.70;;;14.84;60.27;97500.59;5031080;28;20061;-40
2024/04/05 06:40:39;;;;;;;4.15;1.95;;;13.50;81.60;;;14.91;60.29;97511.41;5014557;28;20496;-41
2024/04/05 06:43:10;;;;;;;4.45;2.13;;;13.50;81.30;;;14.98;60.22;97508.78;5030411;28;20033;-41
2024/04/05 06:45:36;;;;;;;4.55;1.80;;;13.70;81.10;;;15.02;60.26;97510.88;5030937;28;20045;-41
2024/04/05 06:48:03;;;;;;;3.45;2.20;;;13.70;80.60;;;15.08;60.20;97510.13;5031183;28;20386;-41
2024/04/05 06:50:31;;;;;;;3.70;1.80;;;13.80;80.30;;;15.15;60.17;97502.94;5030841;28;20049;-40
2024/04/05 06:53:01;;;;;;;4.38;1.92;;;13.90;80.30;;;15.20;60.10;97498.84;5030401;28;20041;-41
2024/04/05 06:55:29;;;;;;;4.50;1.98;;;14.00;80.00;;;15.26;59.96;97504.28;5014510;28;20395;-40
2024/04/05 06:57:56;;;;;;;4.78;1.65;;;14.00;79.70;;;15.33;59.81;97512.38;5030737;28;20046;-41
2024/04/05 07:00:23;;;;;;;7.03;1.70;;;14.10;79.60;;;15.38;59.74;97501.88;5030699;28;20037;-41
2024/04/05 07:02:49;;;;;;;5.10;1.70;;;14.10;79.30;;;15.42;59.71;97496.97;5030205;28;20041;-41
2024/04/05 07:05:16;;;;;;;7.68;2.85;;;14.10;79.10;;;15.48;59.71;97498.88;5030388;28;20030;-41
2024/04/05 07:07:43;;;;;;;3.08;1.95;;;14.20;78.80;;;15.51;59.28;97495.81;5030297;28;20747;-41
2024/04/05 07:10:09;;;;;;;5.97;2.00;;;14.20;78.30;;;15.56;59.23;97494.16;5030871;28;20052;-41
2024/04/05 07:12:36;;;;;;;3.33;1.73;;;14.30;78.10;;;15.60;59.01;97502.66;5013309;28;20038;-41
2024/04/05 07:15:05;;;;;;;4.85;1.80;;;14.30;77.50;;;15.63;58.85;97494.22;5029329;28;20104;-41
2024/04/05 07:17:31;;;;;;;2.40;1.63;;;14.40;77.40;;;15.67;58.83;97489.28;5030185;28;20068;-41
2024/04/05 07:19:59;;;;;;;5.22;1.83;;;14.40;77.00;;;15.72;58.89;97501.09;5030045;28;20064;-41
2024/04/05 07:22:27;;;;;;;5.78;1.95;;;14.50;77.20;;;15.73;58.54;97500.09;5028730;28;20033;-41
2024/04/05 07:24:54;;;;;;;2.97;2.00;;;14.50;76.90;;;15.78;58.42;97494.16;5022363;28;20520;-41
2024/04/05 07:27:20;;;;;;;3.33;1.58;;;14.50;76.40;;;15.83;58.34;97505.09;5030153;28;20185;-41
2024/04/05 07:29:48;;;;;;;3.92;1.60;;;14.60;76.00;;;15.88;57.85;97499.16;5030004;28;20072;-41
2024/04/05 07:32:14;;;;;;;2.53;1.50;;;14.60;76.20;;;15.92;58.04;97485.13;5029575;28;20500;-41
2024/04/05 07:34:41;;;;;;;4.15;1.60;;;14.70;75.40;;;15.96;57.66;97493.59;5013389;28;20060;-41
2024/04/05 07:37:09;;;;;;;2.13;1.40;;;14.70;75.40;;;16.01;57.54;97490.31;5030059;28;20044;-41
2024/04/05 07:39:39;;;;;;;2.88;1.27;;;14.70;74.70;;;16.03;57.60;97483.75;5030062;28;20034;-41
2024/04/05 07:42:05;;;;;;;5.88;1.77;;;14.80;75.10;;;16.05;57.33;97488.88;5028982;28;20502;-41
2024/04/05 07:44:32;;;;;;;3.80;1.77;;;14.80;74.60;;;16.10;57.37;97489.13;5029647;28;20046;-41
2024/04/05 07:46:59;;;;;;;3.20;1.58;;;14.90;74.90;;;16.13;57.50;97492.25;5013166;28;20048;-41
2024/04/05 07:49:26;;;;;;;2.65;1.98;;;14.90;74.60;;;16.19;57.48;97495.13;5029815;28;20268;-41
2024/04/05 07:51:52;;;;;;;3.92;1.83;;;15.00;74.60;;;16.21;57.35;97491.25;5013319;28;20060;-41
2024/04/05 07:54:20;;;;;;;2.67;1.88;;;15.00;74.80;;;16.22;57.57;97494.75;5028554;28;20045;-40
2024/04/05 07:56:47;;;;;;;6.07;2.05;;;15.00;74.90;;;16.23;57.41;97488.34;5012467;28;22212;-40
2024/04/05 07:59:14;;;;;;;5.25;1.73;;;15.00;75.00;;;16.24;57.30;97492.69;5013199;28;20204;-41
2024/04/05 08:01:44;;;;;;;3.85;2.00;;;15.00;74.80;;;16.24;57.22;97493.50;5029346;28;20049;-41
2024/04/05 08:04:11;;;;;;;4.03;1.52;;;15.00;74.90;;;16.28;57.52;97492.06;5029562;28;20052;-41
2024/04/05 08:06:37;;;;;;;8.30;1.60;;;15.00;75.00;;;16.32;57.08;97505.94;5029416;28;20041;-41
2024/04/05 08:09:04;;;;;;;3.67;1.50;;;15.10;74.70;;;16.34;57.01;97496.66;5029493;28;20723;-41
2024/04/05 08:11:31;;;;;;;3.40;1.75;;;15.10;74.10;;;16.42;56.86;97492.13;5029465;28;20505;-41
2024/04/05 08:13:57;;;;;;;3.17;1.52;;;15.20;74.00;;;16.49;56.97;97477.66;5029034;28;20041;-41
2024/04/05 08:16:26;;;;;;;5.35;1.50;;;15.30;74.30;;;16.58;56.94;97480.19;5013177;28;20041;-41
2024/04/05 08:18:54;;;;;;;3.50;2.17;;;15.40;73.90;;;16.65;56.98;97475.63;5029233;28;20148;-41
2024/04/05 08:21:22;;;;;;;4.47;2.10;;;15.40;73.80;;;16.72;56.62;97473.81;5029437;28;20070;-41
2024/04/05 08:23:49;;;;;;;3.85;1.80;;;15.50;73.70;;;16.78;56.47;97477.53;5011861;28;20068;-41
2024/04/05 08:26:16;;;;;;;2.80;2.10;;;15.60;73.30;;;16.87;56.65;97477.16;5029504;28;20041;-42
2024/04/05 08:28:43;;;;;;;2.40;1.45;;;15.70;73.40;;;16.97;56.28;97481.31;5029140;28;20048;-41
2024/04/05 08:31:09;;;;;;;2.53;1.50;;;15.80;73.00;;;17.04;55.99;97480.28;5029563;28;20053;-41
2024/04/05 08:33:36;;;;;;;2.53;1.90;;;15.90;72.40;;;17.16;55.80;97485.03;5029687;28;20046;-41
2024/04/05 08:36:03;;;;;;;2.08;1.30;;;16.00;72.10;;;17.21;55.20;97482.53;5033422;28;20064;-41
2024/04/05 08:38:29;;;;;;;3.00;1.58;;;16.10;70.00;;;17.26;54.49;97477.38;5033407;28;20406;-41
2024/04/05 08:40:57;;;;;;;2.90;1.42;;;16.10;69.40;;;17.27;54.11;97476.34;5033114;28;20033;-41
2024/04/05 08:43:27;;;;;;;1.67;1.42;;;16.10;68.10;;;17.29;53.93;97479.63;5032818;28;20041;-41
2024/04/05 08:45:55;;;;;;;2.10;1.42;;;16.20;68.30;;;17.34;54.03;97477.16;5016797;28;20042;-41
2024/04/05 08:48:22;;;;;;;2.05;1.40;;;16.20;68.90;;;17.38;53.51;97473.00;5033214;28;20041;-41
2024/04/05 08:50:49;;;;;;;1.85;1.50;;;16.20;67.30;;;17.41;53.47;97461.84;5032996;28;20046;-41
2024/04/05 08:53:16;;;;;;;4.35;1.88;;;16.30;67.60;;;17.43;53.33;97465.16;5032624;28;20056;-41
2024/04/05 08:55:45;;;;;;;2.58;1.38;;;16.30;67.50;;;17.49;53.36;97468.88;5033087;28;20112;-41
2024/04/05 08:58:13;;;;;;;2.13;1.40;;;16.30;67.70;;;17.54;53.20;97469.06;5016204;28;20049;-41
2024/04/05 09:00:40;;;;;;;2.58;1.40;;;16.40;67.10;;;17.58;52.90;97477.53;5016640;28;20536;-41
2024/04/05 09:03:07;;;;;;;1.60;1.30;;;16.40;67.40;;;17.64;53.08;97466.78;5032633;28;20044;-41
2024/04/05 09:05:34;;;;;;;1.92;1.50;;;16.50;67.60;;;17.73;53.22;97475.44;5016227;28;20037;-41
2024/04/05 09:08:06;;;;;;;4.78;1.33;;;16.60;67.60;;;17.84;52.80;97468.63;5032901;28;20037;-40
2024/04/05 09:10:32;;;;;;;4.30;1.63;;;16.70;66.60;;;17.94;52.56;97473.56;5032778;28;20429;-40
2024/04/05 09:12:59;;;;;;;2.70;1.58;;;16.90;66.70;;;17.99;52.71;97457.56;5032375;28;20030;-40
2024/04/05 09:15:26;;;;;;;4.22;1.42;;;16.90;66.60;;;18.06;52.60;97469.97;5032760;28;20044;-41
2024/04/05 09:17:53;;;;;;;4.35;1.40;;;17.00;66.70;;;18.15;52.47;97469.75;5030386;28;20042;-40
2024/04/05 09:20:30;;;;;;;6.75;2.08;;;17.10;66.30;;;18.19;51.59;97462.91;5032533;28;20041;-40
2024/04/05 09:23:03;;;;;;;2.17;1.40;;;17.10;63.00;;;18.22;51.47;97448.97;5023117;28;20050;-40
2024/04/05 09:25:32;;;;;;;3.70;1.75;;;17.10;64.10;;;18.26;51.14;97447.50;5016232;28;20049;-41
2024/04/05 09:28:10;;;;;;;2.03;1.50;;;17.10;64.40;;;18.32;51.27;97446.66;5008792;28;20461;-40
2024/04/05 09:30:39;;;;;;;4.03;1.40;;;17.20;63.70;;;18.34;50.61;97441.88;5032507;28;20046;-40
2024/04/05 09:33:06;;;;;;;6.32;1.83;;;17.20;62.10;;;18.34;50.21;97436.50;5032066;28;20037;-41
2024/04/05 09:35:38;;;;;;;1.70;1.25;;;17.20;62.20;;;18.40;50.28;97437.50;5031479;28;20080;-40
2024/04/05 09:38:05;;;;;;;3.47;1.30;;;17.30;62.10;;;18.48;50.01;97426.47;5032236;28;20037;-40
2024/04/05 09:40:34;;;;;;;1.58;1.20;;;17.40;62.00;;;18.54;49.79;97428.28;5031939;28;20397;-40
2024/04/05 09:43:03;;;;;;;4.25;1.73;;;17.40;61.90;;;18.60;50.04;97431.97;5007994;28;20041;-40
2024/04/05 09:45:31;;;;;;;3.65;1.45;;;17.50;62.60;;;18.67;49.62;97435.47;5031894;28;20049;-40
2024/04/05 09:47:59;;;;;;;3.90;1.50;;;17.60;61.90;;;18.73;49.96;97431.03;5032167;28;20104;-41
2024/04/05 09:50:28;;;;;;;4.80;1.67;;;17.70;62.30;;;18.78;49.13;97432.03;5015729;28;20038;-40
2024/04/05 09:52:56;;;;;;;2.25;1.63;;;17.70;60.80;;;18.81;48.91;97428.13;5031379;28;20037;-41
2024/04/05 09:55:28;;;;;;;2.70;1.40;;;17.70;60.80;;;18.88;48.52;97436.97;5015870;28;20516;-40
2024/04/05 09:57:55;;;;;;;1.70;1.20;;;17.80;60.10;;;18.94;48.98;97425.34;5016054;28;20041;-40
2024/04/05 10:00:26;;;;;;;2.15;1.50;;;17.80;60.80;;;18.99;48.23;97421.97;5031769;28;20069;-46
2024/04/05 10:02:58;;;;;;;1.67;1.30;;;17.90;59.80;;;18.95;47.03;97416.19;5015238;28;20436;-40
2024/04/05 10:05:35;;;;;;;1.30;1.20;;;17.90;57.00;;;18.98;47.72;97415.75;5015265;28;20037;-40
2024/04/05 10:08:15;;;;;;;4.32;1.25;;;17.90;58.90;;;19.06;48.03;97417.34;5008333;28;20038;-43
2024/04/05 10:10:42;;;;;;;2.45;1.50;;;18.00;58.40;;;19.12;47.42;97423.75;5031686;28;20052;-40
2024/04/05 10:13:24;;;;;;;2.60;1.30;;;18.00;58.20;;;19.15;46.88;97429.50;5031200;28;20033;-41
2024/04/05 10:15:54;;;;;;;1.95;1.38;;;18.00;56.80;;;19.12;46.47;97427.25;5031516;28;20113;-41
2024/04/05 10:18:39;;;;;;;2.83;1.50;;;18.00;57.30;;;19.16;46.27;97403.34;5015193;28;20493;-41
2024/04/05 10:21:12;;;;;;;2.58;1.42;;;18.10;56.20;;;19.26;46.30;97404.47;5024294;28;20048;-41
2024/04/05 10:23:43;;;;;;;3.63;1.67;;;18.20;56.90;;;19.33;46.59;97400.88;5031255;28;20037;-41